createdAt,value
2018-09-02T00:00:12.749Z,12.00
2018-09-02T00:01:18.428Z,12.01
2018-09-02T00:02:23.860Z,11.94
2018-09-02T00:03:29.519Z,11.87
2018-09-02T00:04:35.024Z,11.87
2018-09-02T00:05:39.793Z,11.83
2018-09-02T00:06:45.821Z,11.78
2018-09-02T00:07:53.274Z,11.79
2018-09-02T00:08:58.023Z,11.75
2018-09-02T00:10:02.760Z,11.79
2018-09-02T00:11:07.593Z,11.79
2018-09-02T00:12:12.380Z,11.83
2018-09-02T00:13:17.073Z,11.88
2018-09-02T00:14:22.073Z,11.95
2018-09-02T00:15:26.792Z,11.94
2018-09-02T00:16:31.519Z,11.92
2018-09-02T00:17:36.214Z,11.91
2018-09-02T00:18:41.053Z,11.92
2018-09-02T00:19:45.760Z,11.95
2018-09-02T00:20:50.779Z,11.99
2018-09-02T00:21:55.475Z,11.99
2018-09-02T00:23:00.179Z,11.96
2018-09-02T00:24:05.682Z,11.86
2018-09-02T00:25:11.238Z,11.75
2018-09-02T00:26:15.936Z,11.47
2018-09-02T00:27:20.943Z,11.25
2018-09-02T00:28:25.654Z,11.00
2018-09-02T00:29:30.424Z,10.86
2018-09-02T00:30:35.151Z,10.83
2018-09-02T00:31:39.843Z,10.76
2018-09-02T00:32:45.292Z,10.61
2018-09-02T00:33:51.092Z,10.51
2018-09-02T00:34:57.343Z,10.48
2018-09-02T00:36:02.039Z,10.54
2018-09-02T00:37:06.763Z,10.59
2018-09-02T00:38:11.532Z,10.68
2018-09-02T00:39:17.222Z,10.77
2018-09-02T00:40:22.332Z,10.78
2018-09-02T00:41:27.019Z,10.84
2018-09-02T00:42:31.776Z,10.90
2018-09-02T00:43:36.513Z,10.84
2018-09-02T00:44:41.293Z,10.67
2018-09-02T00:45:46.104Z,10.46
2018-09-02T00:46:51.391Z,10.35
2018-09-02T00:47:56.391Z,10.10
2018-09-02T00:49:01.209Z,9.88
2018-09-02T00:50:06.284Z,9.83
2018-09-02T00:51:11.018Z,9.81
2018-09-02T00:52:15.736Z,9.71
2018-09-02T00:53:20.839Z,9.62
2018-09-02T00:54:25.520Z,9.58
2018-09-02T00:55:30.242Z,9.53
2018-09-02T00:56:35.188Z,9.48
2018-09-02T00:57:39.922Z,9.44
2018-09-02T00:58:44.647Z,9.44
2018-09-02T00:59:49.784Z,9.40
2018-09-02T01:00:54.503Z,9.31
2018-09-02T01:01:59.232Z,9.27
2018-09-02T01:03:03.972Z,9.26
2018-09-02T01:04:08.651Z,9.28
2018-09-02T01:05:14.711Z,9.26
2018-09-02T01:06:32.137Z,9.21
2018-09-02T01:07:38.480Z,9.20
2018-09-02T01:08:43.992Z,9.13
2018-09-02T01:09:49.065Z,9.15
2018-09-02T01:10:53.796Z,9.09
2018-09-02T01:11:58.565Z,9.04
2018-09-02T01:13:04.833Z,9.01
2018-09-02T01:14:09.835Z,8.97
2018-09-02T01:15:15.567Z,8.90
2018-09-02T01:16:20.316Z,8.89
2018-09-02T01:17:25.069Z,8.94
2018-09-02T01:18:30.753Z,8.92
2018-09-02T01:19:36.040Z,8.92
2018-09-02T01:20:41.441Z,8.90
2018-09-02T01:21:46.166Z,8.92
2018-09-02T01:22:50.991Z,8.91
2018-09-02T01:23:55.733Z,8.80
2018-09-02T01:25:00.526Z,8.76
2018-09-02T01:26:05.744Z,8.80
2018-09-02T01:27:10.488Z,8.81
2018-09-02T01:28:15.360Z,8.85
2018-09-02T01:29:20.394Z,8.92
2018-09-02T01:30:25.385Z,9.07
2018-09-02T01:31:30.129Z,9.18
2018-09-02T01:32:35.239Z,9.29
2018-09-02T01:33:39.975Z,9.39
2018-09-02T01:34:44.734Z,9.38
2018-09-02T01:35:49.508Z,9.34
2018-09-02T01:36:54.262Z,9.30
2018-09-02T01:37:59.075Z,9.33
2018-09-02T01:39:04.984Z,9.40
2018-09-02T01:40:10.312Z,9.53
2018-09-02T01:41:15.057Z,9.62
2018-09-02T01:42:19.785Z,9.62
2018-09-02T01:43:24.564Z,9.61
2018-09-02T01:44:29.550Z,9.59
2018-09-02T01:45:34.901Z,9.60
2018-09-02T01:46:39.643Z,9.57
2018-09-02T01:47:44.562Z,9.62
2018-09-02T01:48:49.314Z,9.67
2018-09-02T01:49:54.674Z,9.70
2018-09-02T01:50:59.410Z,9.77
2018-09-02T01:52:04.750Z,9.83
2018-09-02T01:53:09.501Z,9.91
2018-09-02T01:54:14.298Z,9.93
2018-09-02T01:55:19.048Z,9.96
2018-09-02T01:56:23.769Z,10.00
2018-09-02T01:57:29.555Z,10.02
2018-09-02T01:58:34.588Z,10.00
2018-09-02T01:59:39.389Z,9.99
2018-09-02T02:00:44.151Z,9.99
2018-09-02T02:01:48.981Z,10.02
2018-09-02T02:02:53.717Z,10.04
2018-09-02T02:03:58.459Z,10.04
2018-09-02T02:05:03.521Z,9.91
2018-09-02T02:06:08.292Z,9.80
2018-09-02T02:07:13.957Z,9.65
2018-09-02T02:08:18.725Z,9.47
2018-09-02T02:09:23.530Z,9.32
2018-09-02T02:10:28.818Z,9.31
2018-09-02T02:11:33.561Z,9.38
2018-09-02T02:12:38.297Z,9.45
2018-09-02T02:13:43.097Z,9.51
2018-09-02T02:14:47.796Z,9.60
2018-09-02T02:15:52.618Z,9.66
2018-09-02T02:16:58.168Z,9.69
2018-09-02T02:18:02.968Z,9.71
2018-09-02T02:19:08.214Z,9.74
2018-09-02T02:20:12.988Z,9.73
2018-09-02T02:21:17.720Z,9.77
2018-09-02T02:22:22.490Z,9.79
2018-09-02T02:23:27.588Z,9.80
2018-09-02T02:24:32.816Z,9.80
2018-09-02T02:25:37.571Z,9.81
2018-09-02T02:26:42.448Z,9.82
2018-09-02T02:27:47.135Z,9.76
2018-09-02T02:28:51.764Z,9.75
2018-09-02T02:29:56.885Z,9.78
2018-09-02T02:31:03.478Z,9.82
2018-09-02T02:32:08.194Z,9.85
2018-09-02T02:33:13.457Z,9.84
2018-09-02T02:34:18.128Z,9.85
2018-09-02T02:35:24.269Z,9.89
2018-09-02T02:36:29.377Z,9.90
2018-09-02T02:37:33.993Z,9.94
2018-09-02T02:38:38.643Z,9.98
2018-09-02T02:39:43.267Z,9.91
2018-09-02T02:40:47.856Z,9.89
2018-09-02T02:41:53.025Z,9.92
2018-09-02T02:42:58.890Z,9.95
2018-09-02T02:44:03.577Z,9.92
2018-09-02T02:45:08.228Z,9.86
2018-09-02T02:46:13.138Z,9.77
2018-09-02T02:47:17.766Z,9.75
2018-09-02T02:48:22.416Z,9.74
2018-09-02T02:49:27.471Z,9.67
2018-09-02T02:50:32.078Z,9.67
2018-09-02T02:51:36.747Z,9.68
2018-09-02T02:52:46.465Z,9.64
2018-09-02T02:53:52.030Z,9.66
2018-09-02T02:54:56.721Z,9.74
2018-09-02T02:56:01.802Z,9.75
2018-09-02T02:57:06.569Z,9.70
2018-09-02T02:58:11.495Z,9.64
2018-09-02T02:59:16.261Z,9.62
2018-09-02T03:00:21.084Z,9.65
2018-09-02T03:01:25.869Z,9.61
2018-09-02T03:02:31.181Z,9.48
2018-09-02T03:03:35.962Z,9.47
2018-09-02T03:04:42.298Z,9.46
2018-09-02T03:05:47.829Z,9.51
2018-09-02T03:06:52.554Z,9.55
2018-09-02T03:07:57.299Z,9.43
2018-09-02T03:09:02.497Z,9.34
2018-09-02T03:10:07.257Z,9.31
2018-09-02T03:11:12.028Z,9.26
2018-09-02T03:12:16.857Z,9.28
2018-09-02T03:13:21.598Z,9.34
2018-09-02T03:14:26.344Z,9.37
2018-09-02T03:15:31.597Z,9.39
2018-09-02T03:16:36.576Z,9.43
2018-09-02T03:17:41.381Z,9.40
2018-09-02T03:18:46.244Z,9.39
2018-09-02T03:19:50.991Z,9.40
2018-09-02T03:20:55.749Z,9.44
2018-09-02T03:22:01.006Z,9.46
2018-09-02T03:23:05.722Z,9.47
2018-09-02T03:24:11.309Z,9.49
2018-09-02T03:25:15.912Z,9.49
2018-09-02T03:26:20.516Z,9.40
2018-09-02T03:27:25.200Z,9.34
2018-09-02T03:28:30.411Z,9.34
2018-09-02T03:29:35.337Z,9.36
2018-09-02T03:30:39.953Z,9.39
2018-09-02T03:31:44.593Z,9.40
2018-09-02T03:32:49.228Z,9.34
2018-09-02T03:33:54.093Z,9.29
2018-09-02T03:34:59.534Z,9.19
2018-09-02T03:36:04.156Z,9.18
2018-09-02T03:37:09.357Z,9.18
2018-09-02T03:38:13.982Z,9.21
2018-09-02T03:39:18.612Z,9.27
2018-09-02T03:40:23.251Z,9.21
2018-09-02T03:41:28.262Z,9.20
2018-09-02T03:42:32.920Z,9.25
2018-09-02T03:43:37.531Z,9.28
2018-09-02T03:44:42.205Z,9.26
2018-09-02T03:45:46.953Z,9.27
2018-09-02T03:46:51.600Z,9.33
2018-09-02T03:47:56.550Z,9.30
2018-09-02T03:49:01.220Z,9.31
2018-09-02T03:50:05.876Z,9.29
2018-09-02T03:51:10.539Z,9.20
2018-09-02T03:52:15.305Z,9.18
2018-09-02T03:53:19.938Z,9.15
2018-09-02T03:54:25.028Z,9.16
2018-09-02T03:55:29.840Z,9.15
2018-09-02T03:56:34.477Z,9.15
2018-09-02T03:57:39.101Z,9.17
2018-09-02T03:58:44.613Z,9.19
2018-09-02T03:59:49.470Z,9.24
2018-09-02T04:00:54.563Z,9.23
2018-09-02T04:01:59.230Z,9.17
2018-09-02T04:03:03.906Z,9.13
2018-09-02T04:04:08.582Z,9.14
2018-09-02T04:05:13.225Z,9.16
2018-09-02T04:06:17.813Z,9.09
2018-09-02T04:07:22.874Z,8.97
2018-09-02T04:08:27.467Z,8.80
2018-09-02T04:09:32.101Z,8.71
2018-09-02T04:10:36.719Z,8.65
2018-09-02T04:11:41.848Z,8.58
2018-09-02T04:12:46.490Z,8.58
2018-09-02T04:13:51.778Z,8.57
2018-09-02T04:14:56.414Z,8.53
2018-09-02T04:16:01.106Z,8.54
2018-09-02T04:17:05.741Z,8.43
2018-09-02T04:18:10.398Z,8.26
2018-09-02T04:19:15.094Z,8.20
2018-09-02T04:20:25.293Z,8.21
2018-09-02T04:21:30.007Z,8.29
2018-09-02T04:22:34.758Z,8.39
2018-09-02T04:23:39.512Z,8.38
2018-09-02T04:24:44.218Z,8.34
2018-09-02T04:25:49.460Z,8.32
2018-09-02T04:26:54.653Z,8.31
2018-09-02T04:27:59.512Z,8.31
2018-09-02T04:29:04.260Z,8.35
2018-09-02T04:30:08.972Z,8.40
2018-09-02T04:31:13.901Z,8.36
2018-09-02T04:32:18.713Z,8.31
2018-09-02T04:33:23.424Z,8.36
2018-09-02T04:34:29.205Z,8.40
2018-09-02T04:35:33.952Z,8.36
2018-09-02T04:36:38.713Z,8.29
2018-09-02T04:37:43.685Z,8.25
2018-09-02T04:38:49.616Z,8.26
2018-09-02T04:39:54.745Z,8.26
2018-09-02T04:40:59.487Z,8.26
2018-09-02T04:42:04.238Z,8.29
2018-09-02T04:43:09.483Z,8.22
2018-09-02T04:44:14.237Z,8.25
2018-09-02T04:45:19.057Z,8.27
2018-09-02T04:46:24.229Z,8.20
2018-09-02T04:47:29.076Z,8.20
2018-09-02T04:48:33.812Z,8.19
2018-09-02T04:49:39.306Z,8.18
2018-09-02T04:50:45.443Z,8.18
2018-09-02T04:51:50.092Z,8.21
2018-09-02T04:52:55.225Z,8.13
2018-09-02T04:53:59.908Z,7.86
2018-09-02T04:55:04.501Z,7.85
2018-09-02T04:56:09.140Z,7.85
2018-09-02T04:57:13.822Z,7.74
2018-09-02T04:58:18.505Z,7.76
2018-09-02T04:59:23.641Z,7.84
2018-09-02T05:00:28.382Z,7.92
2018-09-02T05:01:32.929Z,7.92
2018-09-02T05:02:37.640Z,7.94
2018-09-02T05:03:42.286Z,7.97
2018-09-02T05:04:47.286Z,8.00
2018-09-02T05:05:52.320Z,8.00
2018-09-02T05:06:56.940Z,8.05
2018-09-02T05:08:01.594Z,8.02
2018-09-02T05:09:06.869Z,7.89
2018-09-02T05:10:11.483Z,7.86
2018-09-02T05:11:16.129Z,7.93
2018-09-02T05:12:21.200Z,7.89
2018-09-02T05:13:27.401Z,7.86
2018-09-02T05:14:32.700Z,7.81
2018-09-02T05:15:37.342Z,7.74
2018-09-02T05:16:43.046Z,7.70
2018-09-02T05:17:47.770Z,7.72
2018-09-02T05:18:52.803Z,7.78
2018-09-02T05:19:58.377Z,7.67
2018-09-02T05:21:03.160Z,7.66
2018-09-02T05:22:07.861Z,7.61
2018-09-02T05:23:12.513Z,7.72
2018-09-02T05:24:17.191Z,7.83
2018-09-02T05:25:22.960Z,7.94
2018-09-02T05:26:27.772Z,8.07
2018-09-02T05:27:32.929Z,8.05
2018-09-02T05:28:37.729Z,8.01
2018-09-02T05:29:42.558Z,8.06
2018-09-02T05:33:17.762Z,8.29
2018-09-02T05:34:22.529Z,8.42
2018-09-02T05:35:27.349Z,8.50
2018-09-02T05:36:32.127Z,8.59
2018-09-02T05:37:36.914Z,8.64
2018-09-02T05:38:42.160Z,8.63
2018-09-02T05:39:47.701Z,8.60
2018-09-02T05:40:53.379Z,8.63
2018-09-02T05:41:58.108Z,8.58
2018-09-02T05:43:02.878Z,8.47
2018-09-02T05:44:08.373Z,8.33
2018-09-02T05:45:13.901Z,8.26
2018-09-02T05:46:18.656Z,8.33
2018-09-02T05:47:23.416Z,8.28
2018-09-02T05:48:28.165Z,8.26
2018-09-02T05:49:32.893Z,8.33
2018-09-02T05:50:37.646Z,8.45
2018-09-02T05:51:42.778Z,8.64
2018-09-02T05:52:47.525Z,8.72
2018-09-02T05:53:52.249Z,8.74
2018-09-02T05:54:56.907Z,8.82
2018-09-02T05:56:01.548Z,8.91
2018-09-02T05:57:06.404Z,8.89
2018-09-02T05:58:11.473Z,8.88
2018-09-02T05:59:16.089Z,8.88
2018-09-02T06:00:20.689Z,8.91
2018-09-02T06:01:27.745Z,9.00
2018-09-02T06:02:32.782Z,9.01
2018-09-02T06:03:39.217Z,8.91
2018-09-02T06:04:44.300Z,8.86
2018-09-02T06:05:49.758Z,9.00
2018-09-02T06:06:54.451Z,9.08
2018-09-02T06:07:59.360Z,9.23
2018-09-02T06:09:05.526Z,9.37
2018-09-02T06:10:10.190Z,9.51
2018-09-02T06:11:15.264Z,9.63
2018-09-02T06:12:20.753Z,9.72
2018-09-02T06:13:25.392Z,9.69
2018-09-02T06:14:30.173Z,9.69
2018-09-02T06:15:35.192Z,9.71
2018-09-02T06:16:39.985Z,9.78
2018-09-02T06:17:44.998Z,9.86
2018-09-02T06:18:49.629Z,10.06
2018-09-02T06:19:54.234Z,10.19
2018-09-02T06:20:58.854Z,10.13
2018-09-02T06:22:03.559Z,10.06
2018-09-02T06:23:08.183Z,10.17
2018-09-02T06:24:13.334Z,10.32
2018-09-02T06:25:19.677Z,10.48
2018-09-02T06:26:24.533Z,10.62
2018-09-02T06:27:29.360Z,10.57
2018-09-02T06:28:34.139Z,10.70
2018-09-02T06:29:38.854Z,10.97
2018-09-02T06:30:44.953Z,11.42
2018-09-02T06:31:50.669Z,11.83
2018-09-02T06:32:55.511Z,12.22
2018-09-02T06:34:00.771Z,12.72
2018-09-02T06:35:05.598Z,13.13
2018-09-02T06:36:10.345Z,13.41
2018-09-02T06:37:16.002Z,13.61
2018-09-02T06:38:20.748Z,14.23
2018-09-02T06:39:26.620Z,14.00
2018-09-02T06:40:31.568Z,14.26
2018-09-02T06:41:36.965Z,14.38
2018-09-02T06:42:41.794Z,14.55
2018-09-02T06:43:47.243Z,15.10
2018-09-02T06:44:52.047Z,14.90
2018-09-02T06:45:57.088Z,14.84
2018-09-02T06:47:01.852Z,15.37
2018-09-02T06:48:06.777Z,15.90
2018-09-02T06:49:11.906Z,16.23
2018-09-02T06:50:17.141Z,16.58
2018-09-02T06:51:23.135Z,16.79
2018-09-02T06:52:27.873Z,17.18
2018-09-02T06:53:33.285Z,17.17
2018-09-02T06:54:37.929Z,17.02
2018-09-02T06:55:42.681Z,16.84
2018-09-02T06:56:48.457Z,17.24
2018-09-02T06:57:53.093Z,17.83
2018-09-02T06:58:57.749Z,18.06
2018-09-02T07:00:03.268Z,18.03
2018-09-02T07:01:09.416Z,17.89
2018-09-02T07:02:14.044Z,17.70
2018-09-02T07:03:19.131Z,17.92
2018-09-02T07:04:23.749Z,18.43
2018-09-02T07:05:37.507Z,19.14
2018-09-02T07:06:42.183Z,19.37
2018-09-02T07:07:47.738Z,19.39
2018-09-02T07:08:52.373Z,19.51
2018-09-02T07:09:57.501Z,19.69
2018-09-02T07:11:02.159Z,19.88
2018-09-02T07:12:06.801Z,20.27
2018-09-02T07:13:11.456Z,20.75
2018-09-02T07:14:16.143Z,21.18
2018-09-02T07:15:21.710Z,21.18
2018-09-02T07:16:27.869Z,21.18
2018-09-02T07:17:32.590Z,21.33
2018-09-02T07:18:37.242Z,21.06
2018-09-02T07:19:41.884Z,21.18
2018-09-02T07:20:47.633Z,21.50
2018-09-02T07:21:53.966Z,21.98
2018-09-02T07:22:58.584Z,21.96
2018-09-02T07:24:04.332Z,21.60
2018-09-02T07:25:08.958Z,21.30
2018-09-02T07:26:13.589Z,20.92
2018-09-02T07:27:18.355Z,20.93
2018-09-02T07:28:24.314Z,20.82
2018-09-02T07:29:29.079Z,20.89
2018-09-02T07:30:34.755Z,21.00
2018-09-02T07:31:39.845Z,21.20
2018-09-02T07:32:45.797Z,21.36
2018-09-02T07:33:50.581Z,21.31
2018-09-02T07:34:55.781Z,21.55
2018-09-02T07:36:00.663Z,21.24
2018-09-02T07:37:05.664Z,21.72
2018-09-02T07:38:10.472Z,21.60
2018-09-02T07:39:15.259Z,21.91
2018-09-02T07:40:21.678Z,22.13
2018-09-02T07:41:27.804Z,22.57
2018-09-02T07:42:32.775Z,22.72
2018-09-02T07:43:37.664Z,22.84
2018-09-02T07:44:42.822Z,22.97
2018-09-02T07:45:48.469Z,22.83
2018-09-02T07:46:53.726Z,22.71
2018-09-02T07:47:59.068Z,22.24
2018-09-02T07:49:03.797Z,21.98
2018-09-02T07:50:08.573Z,21.95
2018-09-02T07:51:15.134Z,22.08
2018-09-02T07:52:21.454Z,22.09
2018-09-02T07:53:26.203Z,21.91
2018-09-02T07:54:31.657Z,21.51
2018-09-02T07:55:36.756Z,21.09
2018-09-02T07:56:41.429Z,20.99
2018-09-02T07:57:46.054Z,21.21
2018-09-02T07:58:50.703Z,21.51
2018-09-02T07:59:55.410Z,21.44
2018-09-02T08:01:00.447Z,21.32
2018-09-02T08:02:05.099Z,21.59
2018-09-02T08:03:10.465Z,21.01
2018-09-02T08:04:16.055Z,20.50
2018-09-02T08:05:21.622Z,20.80
2018-09-02T08:06:26.707Z,21.23
2018-09-02T08:07:31.781Z,21.69
2018-09-02T08:08:36.449Z,21.98
2018-09-02T08:09:41.582Z,20.92
2018-09-02T08:10:46.217Z,21.22
2018-09-02T08:11:51.882Z,21.23
2018-09-02T08:12:57.555Z,20.24
2018-09-02T08:14:03.479Z,20.44
2018-09-02T08:15:11.197Z,20.92
2018-09-02T08:16:16.044Z,21.06
2018-09-02T08:17:20.825Z,21.02
2018-09-02T08:18:26.531Z,20.85
2018-09-02T08:19:31.448Z,20.96
2018-09-02T08:20:38.358Z,21.20
2018-09-02T08:21:44.111Z,20.69
2018-09-02T08:22:49.019Z,20.65
2018-09-02T08:23:53.781Z,20.63
2018-09-02T08:24:58.592Z,20.57
2018-09-02T08:26:03.345Z,19.95
2018-09-02T08:27:08.493Z,20.31
2018-09-02T08:28:13.342Z,20.55
2018-09-02T08:29:18.978Z,20.83
2018-09-02T08:30:23.749Z,20.89
2018-09-02T08:31:29.710Z,21.47
2018-09-02T08:32:36.225Z,22.02
2018-09-02T08:33:40.909Z,22.09
2018-09-02T08:34:46.332Z,21.96
2018-09-02T08:35:50.984Z,21.17
2018-09-02T08:36:56.210Z,21.32
2018-09-02T08:38:00.877Z,21.35
2018-09-02T08:39:07.399Z,21.47
2018-09-02T08:40:13.322Z,21.94
2018-09-02T08:41:18.046Z,21.46
2018-09-02T08:42:23.682Z,20.93
2018-09-02T08:43:30.064Z,20.72
2018-09-02T08:44:34.736Z,20.86
2018-09-02T08:45:40.760Z,20.86
2018-09-02T08:46:45.414Z,21.35
2018-09-02T08:47:50.181Z,21.46
2018-09-02T08:48:54.801Z,21.39
2018-09-02T08:50:01.680Z,21.24
2018-09-02T08:51:08.130Z,21.14
2018-09-02T08:52:14.284Z,20.98
2018-09-02T08:53:20.008Z,21.17
2018-09-02T08:54:24.792Z,21.29
2018-09-02T08:55:30.410Z,21.50
2018-09-02T08:56:36.528Z,21.63
2018-09-02T08:57:41.168Z,21.44
2018-09-02T08:58:49.136Z,21.16
2018-09-02T08:59:53.792Z,21.22
2018-09-02T09:00:59.342Z,21.26
2018-09-02T09:02:04.577Z,21.55
2018-09-02T09:03:09.397Z,21.80
2018-09-02T09:04:14.151Z,21.62
2018-09-02T09:05:19.126Z,21.77
2018-09-02T09:06:24.690Z,21.29
2018-09-02T09:07:31.462Z,21.09
2018-09-02T09:08:36.233Z,21.29
2018-09-02T09:09:41.533Z,21.59
2018-09-02T09:10:47.270Z,20.91
2018-09-02T09:11:53.531Z,20.77
2018-09-02T09:12:58.284Z,20.97
2018-09-02T09:14:04.647Z,20.91
2018-09-02T09:15:09.339Z,21.18
2018-09-02T09:16:17.124Z,21.39
2018-09-02T09:17:22.875Z,21.15
2018-09-02T09:18:29.362Z,21.17
2018-09-02T09:19:34.252Z,21.65
2018-09-02T09:20:39.555Z,22.05
2018-09-02T09:21:44.363Z,22.34
2018-09-02T09:22:49.093Z,22.39
2018-09-02T09:23:54.408Z,22.18
2018-09-02T09:25:01.644Z,21.96
2018-09-02T09:26:07.317Z,22.19
2018-09-02T09:27:11.985Z,22.12
2018-09-02T09:28:16.750Z,21.88
2018-09-02T09:29:21.423Z,21.78
2018-09-02T09:30:27.440Z,21.79
2018-09-02T09:31:32.379Z,21.40
2018-09-02T09:32:38.362Z,21.36
2018-09-02T09:33:43.086Z,21.34
2018-09-02T09:34:47.698Z,21.17
2018-09-02T09:35:52.378Z,21.15
2018-09-02T09:36:57.991Z,21.16
2018-09-02T09:38:02.773Z,21.25
2018-09-02T09:39:08.449Z,21.15
2018-09-02T09:40:14.247Z,20.68
2018-09-02T09:41:19.492Z,20.87
2018-09-02T09:42:25.462Z,21.05
2018-09-02T09:43:33.759Z,21.01
2018-09-02T09:44:38.765Z,20.98
2018-09-02T09:45:43.774Z,21.25
2018-09-02T09:46:49.238Z,21.10
2018-09-02T09:47:56.203Z,21.15
2018-09-02T09:49:00.850Z,21.15
2018-09-02T09:50:06.526Z,21.24
2018-09-02T09:51:12.012Z,21.45
2018-09-02T09:52:16.997Z,21.13
2018-09-02T09:53:22.618Z,20.99
2018-09-02T09:54:27.360Z,20.98
2018-09-02T09:55:33.328Z,20.97
2018-09-02T09:56:38.385Z,20.86
2018-09-02T09:57:43.812Z,20.87
2018-09-02T09:58:49.873Z,20.96
2018-09-02T09:59:58.054Z,20.84
2018-09-02T10:01:02.804Z,20.83
2018-09-02T10:02:09.394Z,20.77
2018-09-02T10:03:15.379Z,20.87
2018-09-02T10:04:20.240Z,20.94
2018-09-02T10:05:25.391Z,21.06
2018-09-02T10:06:30.075Z,21.09
2018-09-02T10:07:35.808Z,20.85
2018-09-02T10:08:41.261Z,20.99
2018-09-02T10:09:47.448Z,20.89
2018-09-02T10:10:52.939Z,20.86
2018-09-02T10:11:58.564Z,20.80
2018-09-02T10:13:03.464Z,20.82
2018-09-02T10:14:10.011Z,20.83
2018-09-02T10:15:15.905Z,20.85
2018-09-02T10:16:21.895Z,20.93
2018-09-02T10:17:27.635Z,20.61
2018-09-02T10:18:32.412Z,20.64
2018-09-02T10:19:37.101Z,20.56
2018-09-02T10:20:42.339Z,20.43
2018-09-02T10:21:47.020Z,20.48
2018-09-02T10:22:52.036Z,20.53
2018-09-02T10:23:57.585Z,20.50
2018-09-02T10:25:02.257Z,20.54
2018-09-02T10:26:08.962Z,20.51
2018-09-02T10:27:13.639Z,20.39
2018-09-02T10:28:20.239Z,20.42
2018-09-02T10:29:25.393Z,20.49
2018-09-02T10:32:22.324Z,20.66
2018-09-02T10:33:28.536Z,20.69
2018-09-02T10:34:34.239Z,20.76
2018-09-02T10:35:40.982Z,20.90
2018-09-02T10:36:47.418Z,20.91
2018-09-02T10:37:53.078Z,20.92
2018-09-02T10:38:57.751Z,21.02
2018-09-02T10:40:02.487Z,20.89
2018-09-02T10:41:08.892Z,21.02
2018-09-02T10:42:14.606Z,21.05
2018-09-02T10:43:19.255Z,21.26
2018-09-02T10:44:28.558Z,21.42
2018-09-02T10:45:34.989Z,21.90
2018-09-02T10:46:44.689Z,22.48
2018-09-02T10:47:49.747Z,23.04
2018-09-02T10:48:54.896Z,23.09
2018-09-02T10:49:59.632Z,23.01
2018-09-02T10:51:04.582Z,22.85
2018-09-02T10:52:11.347Z,22.64
2018-09-02T10:53:16.032Z,21.28
2018-09-02T10:54:21.631Z,20.70
2018-09-02T10:55:26.627Z,20.65
2018-09-02T10:56:31.269Z,20.79
2018-09-02T10:57:36.697Z,21.18
2018-09-02T10:58:42.284Z,21.49
2018-09-02T10:59:50.095Z,21.64
2018-09-02T11:00:54.750Z,21.80
2018-09-02T11:02:00.306Z,21.71
2018-09-02T11:03:05.017Z,21.59
2018-09-02T11:04:10.290Z,21.60
2018-09-02T11:05:14.981Z,21.61
2018-09-02T11:06:20.146Z,21.69
2018-09-02T11:07:25.970Z,21.86
2018-09-02T11:08:31.776Z,21.95
2018-09-02T11:09:38.389Z,22.12
2018-09-02T11:10:43.009Z,22.10
2018-09-02T11:11:47.689Z,22.04
2018-09-02T11:12:52.383Z,21.94
2018-09-02T11:13:58.456Z,22.10
2018-09-02T11:15:03.872Z,22.11
2018-09-02T11:16:09.498Z,22.27
2018-09-02T11:17:14.610Z,22.18
2018-09-02T11:18:19.456Z,22.22
2018-09-02T11:19:24.336Z,21.71
2018-09-02T11:20:29.288Z,21.78
2018-09-02T11:22:40.007Z,22.19
2018-09-02T11:23:47.761Z,22.01
2018-09-02T11:24:52.518Z,21.94
2018-09-02T11:25:57.438Z,22.13
2018-09-02T11:27:02.292Z,22.17
2018-09-02T11:28:09.305Z,21.93
2018-09-02T11:29:14.825Z,21.84
2018-09-02T11:30:20.388Z,21.86
2018-09-02T11:31:25.999Z,21.76
2018-09-02T11:32:37.655Z,21.81
2018-09-02T11:33:50.277Z,21.93
2018-09-02T11:34:57.249Z,21.99
2018-09-02T11:36:02.667Z,22.01
2018-09-02T11:37:07.326Z,21.46
2018-09-02T11:38:13.297Z,21.38
2018-09-02T11:39:18.655Z,21.49
2018-09-02T11:40:25.719Z,21.28
2018-09-02T11:41:31.640Z,21.08
2018-09-02T11:42:38.792Z,20.90
2018-09-02T11:43:43.542Z,20.86
2018-09-02T11:44:49.919Z,21.05
2018-09-02T11:45:55.293Z,21.26
2018-09-02T11:47:00.932Z,21.16
2018-09-02T11:48:06.168Z,20.96
2018-09-02T11:49:11.642Z,20.70
2018-09-02T11:50:19.537Z,20.47
2018-09-02T11:51:24.195Z,20.61
2018-09-02T11:52:30.309Z,20.71
2018-09-02T11:53:35.502Z,20.75
2018-09-02T11:54:40.444Z,20.76
2018-09-02T11:55:46.504Z,20.53
2018-09-02T11:56:51.751Z,20.71
2018-09-02T11:57:57.061Z,20.82
2018-09-02T11:59:02.561Z,20.80
2018-09-02T12:00:08.945Z,20.68
2018-09-02T12:01:14.774Z,20.68
2018-09-02T12:02:19.598Z,20.62
2018-09-02T12:03:24.229Z,20.70
2018-09-02T12:04:32.830Z,20.70
2018-09-02T12:05:38.106Z,20.75
2018-09-02T12:06:42.746Z,20.70
2018-09-02T12:07:48.346Z,20.63
2018-09-02T12:08:53.728Z,20.63
2018-09-02T12:09:59.274Z,20.57
2018-09-02T12:11:04.437Z,20.49
2018-09-02T12:12:10.263Z,20.34
2018-09-02T12:13:23.200Z,20.27
2018-09-02T12:14:29.454Z,20.37
2018-09-02T12:15:34.979Z,20.51
2018-09-02T12:16:39.824Z,20.34
2018-09-02T12:17:44.570Z,20.34
2018-09-02T12:18:50.364Z,20.39
2018-09-02T12:19:55.517Z,20.25
2018-09-02T12:21:00.211Z,20.46
2018-09-02T12:22:06.606Z,20.50
2018-09-02T12:23:11.246Z,20.55
2018-09-02T12:24:16.556Z,20.74
2018-09-02T12:25:23.536Z,20.95
2018-09-02T12:26:28.198Z,21.10
2018-09-02T12:27:34.369Z,21.16
2018-09-02T12:28:39.190Z,20.85
2018-09-02T12:29:43.845Z,20.88
2018-09-02T12:30:48.572Z,21.09
2018-09-02T12:31:54.271Z,20.92
2018-09-02T12:32:59.273Z,20.79
2018-09-02T12:34:04.683Z,20.42
2018-09-02T12:35:09.343Z,20.44
2018-09-02T12:36:16.841Z,20.73
2018-09-02T12:37:21.512Z,20.78
2018-09-02T12:38:27.361Z,20.83
2018-09-02T12:39:32.033Z,20.98
2018-09-02T12:40:37.994Z,21.18
2018-09-02T12:41:48.066Z,21.43
2018-09-02T12:42:55.357Z,21.45
2018-09-02T12:44:02.913Z,21.62
2018-09-02T12:45:08.237Z,22.07
2018-09-02T12:46:14.660Z,21.92
2018-09-02T12:47:19.345Z,21.72
2018-09-02T12:48:24.708Z,21.67
2018-09-02T12:49:30.706Z,21.68
2018-09-02T12:50:37.164Z,21.76
2018-09-02T12:51:42.384Z,21.69
2018-09-02T12:52:47.204Z,21.48
2018-09-02T12:53:51.908Z,21.41
2018-09-02T12:56:15.533Z,21.55
2018-09-02T12:57:20.883Z,21.72
2018-09-02T12:58:25.542Z,21.91
2018-09-02T12:59:30.329Z,22.16
2018-09-02T13:00:35.553Z,22.43
2018-09-02T13:01:42.094Z,23.01
2018-09-02T13:02:47.360Z,24.68
2018-09-02T13:03:53.347Z,25.38
2018-09-02T13:04:58.169Z,26.00
2018-09-02T13:06:03.058Z,25.20
2018-09-02T13:07:13.168Z,26.51
2018-09-02T13:08:17.977Z,26.75
2018-09-02T13:09:23.678Z,27.46
2018-09-02T13:10:29.280Z,26.22
2018-09-02T13:11:34.724Z,25.70
2018-09-02T13:12:40.653Z,24.67
2018-09-02T13:13:49.154Z,24.10
2018-09-02T13:14:56.368Z,23.52
2018-09-02T13:16:02.645Z,23.42
2018-09-02T13:17:07.855Z,23.00
2018-09-02T13:18:13.739Z,22.94
2018-09-02T13:19:19.807Z,22.89
2018-09-02T13:20:26.108Z,23.02
2018-09-02T13:21:32.830Z,22.85
2018-09-02T13:23:50.779Z,22.38
2018-09-02T13:24:56.005Z,22.47
2018-09-02T13:26:00.705Z,21.95
2018-09-02T13:27:06.150Z,22.01
2018-09-02T13:28:10.891Z,22.20
2018-09-02T13:29:16.112Z,22.35
2018-09-02T13:30:20.942Z,22.40
2018-09-02T13:31:25.952Z,22.39
2018-09-02T13:32:31.994Z,22.42
2018-09-02T13:33:37.385Z,22.47
2018-09-02T13:34:42.992Z,22.31
2018-09-02T13:35:48.241Z,21.98
2018-09-02T13:36:53.335Z,21.81
2018-09-02T13:37:58.113Z,21.83
2018-09-02T13:39:03.048Z,21.95
2018-09-02T13:40:08.584Z,21.94
2018-09-02T13:41:13.680Z,21.69
2018-09-02T13:42:18.709Z,21.70
2018-09-02T13:43:25.264Z,21.77
2018-09-02T13:44:30.469Z,21.94
2018-09-02T13:45:35.359Z,22.08
2018-09-02T13:46:40.049Z,22.21
2018-09-02T13:47:45.539Z,22.13
2018-09-02T13:48:51.316Z,22.11
2018-09-02T13:49:56.720Z,21.95
2018-09-02T13:51:02.181Z,21.89
2018-09-02T13:52:07.595Z,21.96
2018-09-02T13:53:14.090Z,21.88
2018-09-02T13:54:19.283Z,21.93
2018-09-02T13:55:23.936Z,22.04
2018-09-02T13:57:41.811Z,21.80
2018-09-02T13:58:48.802Z,21.90
2018-09-02T13:59:54.341Z,21.95
2018-09-02T14:00:59.524Z,21.93
2018-09-02T14:02:04.267Z,21.76
2018-09-02T14:03:09.026Z,21.58
2018-09-02T14:04:15.532Z,21.40
2018-09-02T14:05:20.183Z,21.35
2018-09-02T14:06:24.916Z,21.37
2018-09-02T14:07:30.797Z,21.42
2018-09-02T14:08:36.552Z,21.47
2018-09-02T14:09:41.861Z,21.49
2018-09-02T14:10:46.589Z,21.31
2018-09-02T14:11:52.487Z,21.25
2018-09-02T14:12:57.880Z,21.11
2018-09-02T14:14:03.089Z,21.08
2018-09-02T14:15:08.184Z,20.96
2018-09-02T14:16:13.794Z,20.78
2018-09-02T14:17:19.661Z,20.77
2018-09-02T14:18:24.478Z,20.71
2018-09-02T14:19:30.286Z,20.69
2018-09-02T14:20:36.677Z,20.58